sensor_id;sensor_type;location;lat;lon;timestamp;pressure;altitude;pressure_sealevel;temperature;humidity
65276;BME280;51875;49.994;14.052;2022-11-03T00:01:04;99132.91;;;3.38;100.00
65276;BME280;51875;49.994;14.052;2022-11-03T00:02:21;99127.47;;;3.19;100.00
65276;BME280;51875;49.994;14.052;2022-11-03T00:03:36;99119.81;;;3.29;100.00
65276;BME280;51875;49.994;14.052;2022-11-03T00:04:52;99127.72;;;3.38;100.00
65276;BME280;51875;49.994;14.052;2022-11-03T00:06:10;99123.38;;;3.37;100.00
65276;BME280;51875;49.994;14.052;2022-11-03T00:07:26;99122.47;;;3.33;100.00
65276;BME280;51875;49.994;14.052;2022-11-03T00:08:42;99129.28;;;3.27;100.00
65276;BME280;51875;49.994;14.052;2022-11-03T00:09:57;99128.25;;;3.12;100.00
65276;BME280;51875;49.994;14.052;2022-11-03T00:11:13;99122.84;;;2.95;100.00
65276;BME280;51875;49.994;14.052;2022-11-03T00:12:29;99125.50;;;3.00;100.00
65276;BME280;51875;49.994;14.052;2022-11-03T00:13:45;99120.38;;;3.06;100.00
65276;BME280;51875;49.994;14.052;2022-11-03T00:15:00;99122.09;;;3.04;100.00
65276;BME280;51875;49.994;14.052;2022-11-03T00:16:16;99119.69;;;3.18;100.00
65276;BME280;51875;49.994;14.052;2022-11-03T00:17:32;99123.13;;;3.17;100.00
65276;BME280;51875;49.994;14.052;2022-11-03T00:18:47;99118.00;;;3.20;100.00
65276;BME280;51875;49.994;14.052;2022-11-03T00:20:03;99123.97;;;3.14;100.00
65276;BME280;51875;49.994;14.052;2022-11-03T00:21:18;99121.50;;;3.23;100.00
65276;BME280;51875;49.994;14.052;2022-11-03T00:22:34;99122.25;;;3.16;100.00
65276;BME280;51875;49.994;14.052;2022-11-03T00:23:50;99122.03;;;2.99;100.00
65276;BME280;51875;49.994;14.052;2022-11-03T00:25:06;99116.84;;;2.99;100.00
65276;BME280;51875;49.994;14.052;2022-11-03T00:26:26;99121.03;;;2.89;100.00
65276;BME280;51875;49.994;14.052;2022-11-03T00:27:43;99117.63;;;2.92;100.00
65276;BME280;51875;49.994;14.052;2022-11-03T00:29:00;99120.97;;;2.85;100.00
65276;BME280;51875;49.994;14.052;2022-11-03T00:30:16;99114.16;;;2.90;100.00
65276;BME280;51875;49.994;14.052;2022-11-03T00:31:33;99122.81;;;2.92;100.00
65276;BME280;51875;49.994;14.052;2022-11-03T00:32:50;99121.31;;;3.09;100.00
65276;BME280;51875;49.994;14.052;2022-11-03T00:34:05;99121.38;;;3.14;100.00
65276;BME280;51875;49.994;14.052;2022-11-03T00:35:21;99111.94;;;3.19;100.00
65276;BME280;51875;49.994;14.052;2022-11-03T00:36:41;99115.38;;;3.18;100.00
65276;BME280;51875;49.994;14.052;2022-11-03T00:37:58;99119.78;;;3.27;100.00
65276;BME280;51875;49.994;14.052;2022-11-03T00:39:13;99108.56;;;3.23;100.00
65276;BME280;51875;49.994;14.052;2022-11-03T00:40:28;99108.69;;;3.34;100.00
65276;BME280;51875;49.994;14.052;2022-11-03T00:41:44;99101.84;;;3.41;100.00
65276;BME280;51875;49.994;14.052;2022-11-03T00:43:00;99114.78;;;3.38;100.00
65276;BME280;51875;49.994;14.052;2022-11-03T00:44:15;99107.97;;;3.48;100.00
65276;BME280;51875;49.994;14.052;2022-11-03T00:45:31;99098.53;;;3.53;100.00
65276;BME280;51875;49.994;14.052;2022-11-03T00:46:46;99107.16;;;3.52;100.00
65276;BME280;51875;49.994;14.052;2022-11-03T00:48:02;99098.38;;;3.36;100.00
65276;BME280;51875;49.994;14.052;2022-11-03T00:49:36;99095.44;;;3.09;100.00
65276;BME280;51875;49.994;14.052;2022-11-03T00:50:52;99095.47;;;3.11;100.00
65276;BME280;51875;49.994;14.052;2022-11-03T00:52:07;99092.09;;;3.17;100.00
65276;BME280;51875;49.994;14.052;2022-11-03T00:53:23;99091.31;;;3.25;100.00
65276;BME280;51875;49.994;14.052;2022-11-03T00:54:38;99087.78;;;3.16;100.00
65276;BME280;51875;49.994;14.052;2022-11-03T00:55:55;99086.94;;;3.20;100.00
65276;BME280;51875;49.994;14.052;2022-11-03T00:57:10;99084.38;;;3.21;100.00
65276;BME280;51875;49.994;14.052;2022-11-03T00:58:26;99087.03;;;3.28;100.00
65276;BME280;51875;49.994;14.052;2022-11-03T00:59:42;99085.03;;;3.05;100.00
65276;BME280;51875;49.994;14.052;2022-11-03T01:01:10;99086.03;;;3.16;100.00
65276;BME280;51875;49.994;14.052;2022-11-03T01:02:26;99085.38;;;3.31;100.00
65276;BME280;51875;49.994;14.052;2022-11-03T01:03:44;99075.19;;;3.47;100.00
65276;BME280;51875;49.994;14.052;2022-11-03T01:05:20;99082.78;;;3.33;100.00
65276;BME280;51875;49.994;14.052;2022-11-03T01:06:56;99076.56;;;3.17;100.00
65276;BME280;51875;49.994;14.052;2022-11-03T01:08:12;99081.94;;;3.35;100.00
65276;BME280;51875;49.994;14.052;2022-11-03T01:10:46;99079.44;;;3.43;100.00
65276;BME280;51875;49.994;14.052;2022-11-03T01:12:20;99080.91;;;3.21;100.00
65276;BME280;51875;49.994;14.052;2022-11-03T01:13:35;99078.38;;;3.25;100.00
65276;BME280;51875;49.994;14.052;2022-11-03T01:14:54;99081.97;;;3.38;100.00
65276;BME280;51875;49.994;14.052;2022-11-03T01:16:09;99079.47;;;3.46;100.00
65276;BME280;51875;49.994;14.052;2022-11-03T01:17:26;99076.09;;;3.52;100.00
65276;BME280;51875;49.994;14.052;2022-11-03T01:18:42;99077.59;;;3.31;100.00
65276;BME280;51875;49.994;14.052;2022-11-03T01:19:58;99078.28;;;3.19;100.00
65276;BME280;51875;49.994;14.052;2022-11-03T01:21:14;99075.63;;;3.11;100.00
65276;BME280;51875;49.994;14.052;2022-11-03T01:22:29;99077.34;;;3.11;100.00
65276;BME280;51875;49.994;14.052;2022-11-03T01:23:45;99074.94;;;3.28;100.00
65276;BME280;51875;49.994;14.052;2022-11-03T01:25:01;99069.06;;;3.40;100.00
65276;BME280;51875;49.994;14.052;2022-11-03T01:26:17;99072.66;;;3.51;100.00
65276;BME280;51875;49.994;14.052;2022-11-03T01:27:33;99066.78;;;3.71;100.00
65276;BME280;51875;49.994;14.052;2022-11-03T01:28:49;99075.38;;;3.68;100.00
65276;BME280;51875;49.994;14.052;2022-11-03T01:30:05;99073.53;;;3.55;100.00
65276;BME280;51875;49.994;14.052;2022-11-03T01:31:23;99066.59;;;3.49;100.00
65276;BME280;51875;49.994;14.052;2022-11-03T01:32:39;99067.47;;;3.51;100.00
65276;BME280;51875;49.994;14.052;2022-11-03T01:33:55;99063.19;;;3.57;100.00
65276;BME280;51875;49.994;14.052;2022-11-03T01:35:12;99063.41;;;3.77;100.00
65276;BME280;51875;49.994;14.052;2022-11-03T01:36:27;99066.81;;;3.74;100.00
65276;BME280;51875;49.994;14.052;2022-11-03T01:37:43;99055.50;;;3.64;100.00
65276;BME280;51875;49.994;14.052;2022-11-03T01:38:58;99055.38;;;3.50;100.00
65276;BME280;51875;49.994;14.052;2022-11-03T01:40:14;99052.84;;;3.57;100.00
65276;BME280;51875;49.994;14.052;2022-11-03T01:41:29;99051.94;;;3.51;100.00
65276;BME280;51875;49.994;14.052;2022-11-03T01:42:45;99047.75;;;3.66;100.00
65276;BME280;51875;49.994;14.052;2022-11-03T01:45:23;99052.19;;;3.78;100.00
65276;BME280;51875;49.994;14.052;2022-11-03T01:46:45;99047.41;;;3.35;100.00
65276;BME280;51875;49.994;14.052;2022-11-03T01:48:02;99047.22;;;3.16;100.00
65276;BME280;51875;49.994;14.052;2022-11-03T01:49:29;99047.97;;;3.07;100.00
65276;BME280;51875;49.994;14.052;2022-11-03T01:50:49;99043.19;;;3.40;100.00
65276;BME280;51875;49.994;14.052;2022-11-03T01:52:14;99035.63;;;3.63;100.00
65276;BME280;51875;49.994;14.052;2022-11-03T01:53:30;99034.75;;;3.61;100.00
65276;BME280;51875;49.994;14.052;2022-11-03T01:54:49;99027.66;;;3.43;100.00
65276;BME280;51875;49.994;14.052;2022-11-03T01:56:08;99029.63;;;3.66;100.00
65276;BME280;51875;49.994;14.052;2022-11-03T01:57:38;99031.38;;;3.70;100.00
65276;BME280;51875;49.994;14.052;2022-11-03T01:58:55;99021.94;;;3.74;100.00
65276;BME280;51875;49.994;14.052;2022-11-03T02:00:11;99023.38;;;3.45;100.00
65276;BME280;51875;49.994;14.052;2022-11-03T02:01:28;99019.97;;;3.49;100.00
65276;BME280;51875;49.994;14.052;2022-11-03T02:02:44;99019.78;;;3.29;100.00
65276;BME280;51875;49.994;14.052;2022-11-03T02:04:08;99012.94;;;3.36;100.00
65276;BME280;51875;49.994;14.052;2022-11-03T02:05:26;99002.75;;;3.51;100.00
65276;BME280;51875;49.994;14.052;2022-11-03T02:06:43;99009.41;;;3.31;100.00
65276;BME280;51875;49.994;14.052;2022-11-03T02:08:01;99004.28;;;3.34;100.00
65276;BME280;51875;49.994;14.052;2022-11-03T02:09:20;99010.78;;;2.97;100.00
65276;BME280;51875;49.994;14.052;2022-11-03T02:10:36;99002.31;;;3.13;100.00
65276;BME280;51875;49.994;14.052;2022-11-03T02:11:52;98998.78;;;3.01;100.00
65276;BME280;51875;49.994;14.052;2022-11-03T02:13:25;98996.00;;;2.87;100.00
65276;BME280;51875;49.994;14.052;2022-11-03T02:14:56;99000.25;;;2.82;100.00
65276;BME280;51875;49.994;14.052;2022-11-03T02:16:13;98995.16;;;2.87;100.00
65276;BME280;51875;49.994;14.052;2022-11-03T02:17:29;98991.81;;;2.97;100.00
65276;BME280;51875;49.994;14.052;2022-11-03T02:18:46;98993.53;;;2.98;100.00
65276;BME280;51875;49.994;14.052;2022-11-03T02:20:06;98999.16;;;2.64;100.00
65276;BME280;51875;49.994;14.052;2022-11-03T02:21:26;98995.53;;;2.50;100.00
65276;BME280;51875;49.994;14.052;2022-11-03T02:24:29;98978.88;;;2.95;100.00
65276;BME280;51875;49.994;14.052;2022-11-03T02:25:50;98990.81;;;2.84;100.00
65276;BME280;51875;49.994;14.052;2022-11-03T02:27:06;98989.03;;;2.80;100.00
65276;BME280;51875;49.994;14.052;2022-11-03T02:28:25;98984.00;;;2.94;100.00
65276;BME280;51875;49.994;14.052;2022-11-03T02:29:41;98984.97;;;3.04;100.00
65276;BME280;51875;49.994;14.052;2022-11-03T02:31:13;98987.72;;;3.16;100.00
65276;BME280;51875;49.994;14.052;2022-11-03T02:32:54;98983.34;;;3.09;100.00
65276;BME280;51875;49.994;14.052;2022-11-03T02:34:18;98979.19;;;3.23;100.00
65276;BME280;51875;49.994;14.052;2022-11-03T02:35:47;98966.25;;;3.27;100.00
65276;BME280;51875;49.994;14.052;2022-11-03T02:37:16;98968.91;;;3.34;100.00
65276;BME280;51875;49.994;14.052;2022-11-03T02:38:38;98969.78;;;3.33;100.00
65276;BME280;51875;49.994;14.052;2022-11-03T02:40:02;98968.91;;;3.34;100.00
65276;BME280;51875;49.994;14.052;2022-11-03T02:41:20;98968.00;;;3.28;100.00
65276;BME280;51875;49.994;14.052;2022-11-03T02:42:37;98964.56;;;3.32;100.00
65276;BME280;51875;49.994;14.052;2022-11-03T02:43:55;98966.28;;;3.30;100.00
65276;BME280;51875;49.994;14.052;2022-11-03T02:45:13;98961.22;;;3.39;100.00
65276;BME280;51875;49.994;14.052;2022-11-03T02:46:32;98967.28;;;3.44;100.00
65276;BME280;51875;49.994;14.052;2022-11-03T02:47:49;98967.13;;;3.25;100.00
65276;BME280;51875;49.994;14.052;2022-11-03T02:49:07;98963.50;;;3.08;100.00
65276;BME280;51875;49.994;14.052;2022-11-03T02:50:27;98964.22;;;2.99;100.00
65276;BME280;51875;49.994;14.052;2022-11-03T02:51:43;98960.91;;;3.09;100.00
65276;BME280;51875;49.994;14.052;2022-11-03T02:52:58;98957.50;;;3.12;100.00
65276;BME280;51875;49.994;14.052;2022-11-03T02:54:25;98957.47;;;3.09;100.00
65276;BME280;51875;49.994;14.052;2022-11-03T02:56:04;98964.44;;;3.18;100.00
65276;BME280;51875;49.994;14.052;2022-11-03T02:57:24;98957.63;;;3.28;100.00
65276;BME280;51875;49.994;14.052;2022-11-03T03:00:04;98959.25;;;3.15;100.00
65276;BME280;51875;49.994;14.052;2022-11-03T03:03:08;98946.56;;;3.41;100.00
65276;BME280;51875;49.994;14.052;2022-11-03T03:04:28;98947.34;;;3.34;100.00
65276;BME280;51875;49.994;14.052;2022-11-03T03:05:46;98949.06;;;3.33;100.00
65276;BME280;51875;49.994;14.052;2022-11-03T03:07:26;98942.09;;;3.24;100.00
65276;BME280;51875;49.994;14.052;2022-11-03T03:08:45;98946.47;;;3.35;100.00
65276;BME280;51875;49.994;14.052;2022-11-03T03:10:14;98940.44;;;3.31;100.00
65276;BME280;51875;49.994;14.052;2022-11-03T03:11:31;98946.38;;;3.22;100.00
65276;BME280;51875;49.994;14.052;2022-11-03T03:12:56;98934.25;;;3.18;100.00
65276;BME280;51875;49.994;14.052;2022-11-03T03:14:16;98934.94;;;3.02;100.00
65276;BME280;51875;49.994;14.052;2022-11-03T03:15:44;98937.47;;;2.94;100.00
65276;BME280;51875;49.994;14.052;2022-11-03T03:17:04;98933.09;;;2.88;100.00
65276;BME280;51875;49.994;14.052;2022-11-03T03:18:29;98938.97;;;2.75;100.00
65276;BME280;51875;49.994;14.052;2022-11-03T03:19:56;98933.53;;;2.51;100.00
65276;BME280;51875;49.994;14.052;2022-11-03T03:21:20;98942.31;;;2.66;100.00
65276;BME280;51875;49.994;14.052;2022-11-03T03:22:45;98945.84;;;2.73;100.00
65276;BME280;51875;49.994;14.052;2022-11-03T03:24:18;98945.22;;;2.94;100.00
65276;BME280;51875;49.994;14.052;2022-11-03T03:25:44;98946.13;;;2.97;100.00
65276;BME280;51875;49.994;14.052;2022-11-03T03:27:01;98951.31;;;2.97;100.00
65276;BME280;51875;49.994;14.052;2022-11-03T03:28:22;98954.88;;;3.09;100.00
65276;BME280;51875;49.994;14.052;2022-11-03T03:29:50;98958.41;;;3.19;100.00
65276;BME280;51875;49.994;14.052;2022-11-03T03:31:10;98954.88;;;3.09;100.00
65276;BME280;51875;49.994;14.052;2022-11-03T03:32:30;98951.38;;;3.07;100.00
65276;BME280;51875;49.994;14.052;2022-11-03T03:33:49;98955.69;;;3.06;100.00
65276;BME280;51875;49.994;14.052;2022-11-03T03:35:09;98952.28;;;3.09;100.00
65276;BME280;51875;49.994;14.052;2022-11-03T03:36:28;98959.97;;;3.03;100.00
65276;BME280;51875;49.994;14.052;2022-11-03T03:37:48;98953.09;;;3.05;100.00
65276;BME280;51875;49.994;14.052;2022-11-03T03:39:06;98952.31;;;3.14;100.00
65276;BME280;51875;49.994;14.052;2022-11-03T03:40:29;98952.31;;;3.12;100.00
65276;BME280;51875;49.994;14.052;2022-11-03T03:41:47;98953.97;;;3.05;100.00
65276;BME280;51875;49.994;14.052;2022-11-03T03:43:05;98948.91;;;3.16;100.00
65276;BME280;51875;49.994;14.052;2022-11-03T03:44:22;98941.09;;;3.10;100.00
65276;BME280;51875;49.994;14.052;2022-11-03T03:45:41;98949.50;;;2.92;100.00
65276;BME280;51875;49.994;14.052;2022-11-03T03:47:02;98948.41;;;2.71;100.00
65276;BME280;51875;49.994;14.052;2022-11-03T03:48:18;98951.84;;;2.70;100.00
65276;BME280;51875;49.994;14.052;2022-11-03T03:49:34;98949.25;;;2.68;100.00
65276;BME280;51875;49.994;14.052;2022-11-03T03:50:50;98953.63;;;2.74;100.00
65276;BME280;51875;49.994;14.052;2022-11-03T03:52:07;98950.13;;;2.71;100.00
65276;BME280;51875;49.994;14.052;2022-11-03T03:53:26;98945.03;;;2.77;100.00
65276;BME280;51875;49.994;14.052;2022-11-03T03:54:43;98958.03;;;2.83;100.00
65276;BME280;51875;49.994;14.052;2022-11-03T03:55:59;98960.69;;;2.88;100.00
65276;BME280;51875;49.994;14.052;2022-11-03T03:57:17;98953.84;;;2.94;100.00
65276;BME280;51875;49.994;14.052;2022-11-03T03:58:34;98955.63;;;3.00;100.00
65276;BME280;51875;49.994;14.052;2022-11-03T03:59:50;98957.22;;;2.87;100.00
65276;BME280;51875;49.994;14.052;2022-11-03T04:01:10;98947.66;;;2.81;100.00
65276;BME280;51875;49.994;14.052;2022-11-03T04:02:26;98953.69;;;2.80;100.00
65276;BME280;51875;49.994;14.052;2022-11-03T04:03:41;98951.16;;;2.85;100.00
65276;BME280;51875;49.994;14.052;2022-11-03T04:04:57;98951.09;;;2.80;100.00
65276;BME280;51875;49.994;14.052;2022-11-03T04:06:14;98951.22;;;2.90;100.00
65276;BME280;51875;49.994;14.052;2022-11-03T04:07:29;98958.13;;;2.92;100.00
65276;BME280;51875;49.994;14.052;2022-11-03T04:09:03;98949.59;;;3.00;100.00
65276;BME280;51875;49.994;14.052;2022-11-03T04:10:20;98954.50;;;2.78;100.00
65276;BME280;51875;49.994;14.052;2022-11-03T04:11:37;98947.41;;;2.58;100.00
65276;BME280;51875;49.994;14.052;2022-11-03T04:13:11;98941.19;;;2.44;100.00
65276;BME280;51875;49.994;14.052;2022-11-03T04:14:45;98944.81;;;2.58;100.00
65276;BME280;51875;49.994;14.052;2022-11-03T04:16:18;98945.63;;;2.54;100.00
65276;BME280;51875;49.994;14.052;2022-11-03T04:17:53;98944.63;;;2.44;100.00
65276;BME280;51875;49.994;14.052;2022-11-03T04:19:27;98945.69;;;2.59;100.00
65276;BME280;51875;49.994;14.052;2022-11-03T04:21:02;98948.88;;;2.39;100.00
65276;BME280;51875;49.994;14.052;2022-11-03T04:22:36;98947.47;;;2.66;100.00
65276;BME280;51875;49.994;14.052;2022-11-03T04:23:51;98942.38;;;2.71;100.00
65276;BME280;51875;49.994;14.052;2022-11-03T04:25:07;98946.75;;;2.78;100.00
65276;BME280;51875;49.994;14.052;2022-11-03T04:26:23;98946.78;;;2.79;100.00
65276;BME280;51875;49.994;14.052;2022-11-03T04:27:39;98940.84;;;2.88;100.00
65276;BME280;51875;49.994;14.052;2022-11-03T04:28:56;98946.97;;;2.96;100.00
65276;BME280;51875;49.994;14.052;2022-11-03T04:30:16;98943.44;;;2.91;100.00
65276;BME280;51875;49.994;14.052;2022-11-03T04:31:34;98930.59;;;2.94;100.00
65276;BME280;51875;49.994;14.052;2022-11-03T04:32:51;98932.38;;;3.02;100.00
65276;BME280;51875;49.994;14.052;2022-11-03T04:34:10;98931.44;;;2.95;100.00
65276;BME280;51875;49.994;14.052;2022-11-03T04:35:27;98937.38;;;2.86;100.00
65276;BME280;51875;49.994;14.052;2022-11-03T04:36:42;98932.88;;;2.71;100.00
65276;BME280;51875;49.994;14.052;2022-11-03T04:38:07;98931.22;;;2.75;100.00
65276;BME280;51875;49.994;14.052;2022-11-03T04:39:31;98927.00;;;2.83;100.00
65276;BME280;51875;49.994;14.052;2022-11-03T04:40:52;98931.34;;;2.87;100.00
65276;BME280;51875;49.994;14.052;2022-11-03T04:42:19;98921.91;;;2.92;100.00
65276;BME280;51875;49.994;14.052;2022-11-03T04:43:36;98914.34;;;3.08;100.00
65276;BME280;51875;49.994;14.052;2022-11-03T04:44:53;98910.88;;;3.07;100.00
65276;BME280;51875;49.994;14.052;2022-11-03T04:46:11;98908.16;;;2.93;100.00
65276;BME280;51875;49.994;14.052;2022-11-03T04:47:27;98904.34;;;2.63;100.00
65276;BME280;51875;49.994;14.052;2022-11-03T04:48:44;98909.44;;;2.54;100.00
65276;BME280;51875;49.994;14.052;2022-11-03T04:50:05;98906.84;;;2.54;100.00
65276;BME280;51875;49.994;14.052;2022-11-03T04:51:27;98911.97;;;2.51;100.00
65276;BME280;51875;49.994;14.052;2022-11-03T04:52:46;98914.44;;;2.42;100.00
65276;BME280;51875;49.994;14.052;2022-11-03T04:54:20;98907.97;;;2.78;100.00
65276;BME280;51875;49.994;14.052;2022-11-03T04:55:41;98904.34;;;2.63;100.00
65276;BME280;51875;49.994;14.052;2022-11-03T04:56:57;98899.19;;;2.63;100.00
65276;BME280;51875;49.994;14.052;2022-11-03T04:58:18;98896.44;;;2.46;100.00
65276;BME280;51875;49.994;14.052;2022-11-03T04:59:34;98888.50;;;2.32;100.00
65276;BME280;51875;49.994;14.052;2022-11-03T05:00:52;98894.88;;;2.61;100.00
65276;BME280;51875;49.994;14.052;2022-11-03T05:02:12;98896.28;;;2.35;100.00
65276;BME280;51875;49.994;14.052;2022-11-03T05:03:30;98892.72;;;2.24;100.00
65276;BME280;51875;49.994;14.052;2022-11-03T05:04:47;98894.66;;;2.44;100.00
65276;BME280;51875;49.994;14.052;2022-11-03T05:06:29;98894.72;;;2.50;100.00
65276;BME280;51875;49.994;14.052;2022-11-03T05:07:57;98897.31;;;2.50;100.00
65276;BME280;51875;49.994;14.052;2022-11-03T05:09:20;98893.69;;;2.34;100.00
65276;BME280;51875;49.994;14.052;2022-11-03T05:10:37;98886.72;;;2.28;100.00
65276;BME280;51875;49.994;14.052;2022-11-03T05:11:53;98889.34;;;2.31;100.00
65276;BME280;51875;49.994;14.052;2022-11-03T05:13:26;98897.25;;;2.44;100.00
65276;BME280;51875;49.994;14.052;2022-11-03T05:14:43;98895.59;;;2.50;100.00
65276;BME280;51875;49.994;14.052;2022-11-03T05:16:03;98896.97;;;2.20;100.00
65276;BME280;51875;49.994;14.052;2022-11-03T05:17:23;98891.06;;;2.32;100.00
65276;BME280;51875;49.994;14.052;2022-11-03T05:18:42;98886.72;;;2.30;100.00
65276;BME280;51875;49.994;14.052;2022-11-03T05:20:02;98884.84;;;2.18;100.00
65276;BME280;51875;49.994;14.052;2022-11-03T05:21:21;98880.75;;;2.34;100.00
65276;BME280;51875;49.994;14.052;2022-11-03T05:22:37;98878.03;;;2.21;100.00
65276;BME280;51875;49.994;14.052;2022-11-03T05:23:58;98876.38;;;2.28;100.00
65276;BME280;51875;49.994;14.052;2022-11-03T05:25:41;98874.69;;;2.30;100.00
65276;BME280;51875;49.994;14.052;2022-11-03T05:26:57;98874.75;;;2.35;100.00
65276;BME280;51875;49.994;14.052;2022-11-03T05:29:37;98879.69;;;2.18;100.00
65276;BME280;51875;49.994;14.052;2022-11-03T05:30:53;98870.81;;;1.97;100.00
65276;BME280;51875;49.994;14.052;2022-11-03T05:32:11;98876.22;;;2.16;100.00
65276;BME280;51875;49.994;14.052;2022-11-03T05:33:33;98869.94;;;1.96;100.00
65276;BME280;51875;49.994;14.052;2022-11-03T05:34:51;98868.38;;;2.09;100.00
65276;BME280;51875;49.994;14.052;2022-11-03T05:36:11;98862.34;;;2.07;100.00
65276;BME280;51875;49.994;14.052;2022-11-03T05:37:31;98858.13;;;2.13;100.00
65276;BME280;51875;49.994;14.052;2022-11-03T05:38:47;98857.28;;;2.17;100.00
65276;BME280;51875;49.994;14.052;2022-11-03T05:40:15;98859.44;;;2.52;100.00
65276;BME280;51875;49.994;14.052;2022-11-03T05:41:35;98854.69;;;2.15;100.00
65276;BME280;51875;49.994;14.052;2022-11-03T05:43:00;98855.78;;;2.33;100.00
65276;BME280;51875;49.994;14.052;2022-11-03T05:44:35;98859.22;;;2.32;100.00
65276;BME280;51875;49.994;14.052;2022-11-03T05:45:54;98864.97;;;2.12;100.00
65276;BME280;51875;49.994;14.052;2022-11-03T05:47:18;98852.75;;;1.98;100.00
65276;BME280;51875;49.994;14.052;2022-11-03T05:48:38;98853.72;;;2.08;100.00
65276;BME280;51875;49.994;14.052;2022-11-03T05:50:00;98854.94;;;2.34;100.00
65276;BME280;51875;49.994;14.052;2022-11-03T05:51:38;98853.06;;;2.23;100.00
65276;BME280;51875;49.994;14.052;2022-11-03T05:53:02;98846.84;;;2.07;100.00
65276;BME280;51875;49.994;14.052;2022-11-03T05:54:25;98844.47;;;2.24;100.00
65276;BME280;51875;49.994;14.052;2022-11-03T05:55:42;98846.81;;;2.04;100.00
65276;BME280;51875;49.994;14.052;2022-11-03T05:56:58;98845.34;;;2.25;100.00
65276;BME280;51875;49.994;14.052;2022-11-03T05:58:34;98845.22;;;2.16;100.00
65276;BME280;51875;49.994;14.052;2022-11-03T05:59:51;98842.72;;;2.22;100.00
65276;BME280;51875;49.994;14.052;2022-11-03T06:01:15;98850.41;;;2.16;100.00
65276;BME280;51875;49.994;14.052;2022-11-03T06:02:40;98845.19;;;2.13;100.00
65276;BME280;51875;49.994;14.052;2022-11-03T06:04:17;98849.44;;;2.09;100.00
65276;BME280;51875;49.994;14.052;2022-11-03T06:05:33;98845.88;;;1.99;100.00
65276;BME280;51875;49.994;14.052;2022-11-03T06:06:54;98842.22;;;1.83;100.00
65276;BME280;51875;49.994;14.052;2022-11-03T06:08:34;98846.97;;;2.17;100.00
65276;BME280;51875;49.994;14.052;2022-11-03T06:09:52;98847.69;;;2.06;100.00
65276;BME280;51875;49.994;14.052;2022-11-03T06:11:09;98845.25;;;2.19;100.00
65276;BME280;51875;49.994;14.052;2022-11-03T06:12:31;98854.72;;;2.17;100.00
65276;BME280;51875;49.994;14.052;2022-11-03T06:13:46;98852.81;;;2.03;100.00
65276;BME280;51875;49.994;14.052;2022-11-03T06:15:07;98852.09;;;2.14;100.00
65276;BME280;51875;49.994;14.052;2022-11-03T06:16:39;98849.66;;;2.28;100.00
65276;BME280;51875;49.994;14.052;2022-11-03T06:17:56;98849.63;;;2.24;100.00
65276;BME280;51875;49.994;14.052;2022-11-03T06:19:25;98842.81;;;2.28;100.00
65276;BME280;51875;49.994;14.052;2022-11-03T06:20:53;98851.25;;;2.15;100.00
65276;BME280;51875;49.994;14.052;2022-11-03T06:22:26;98855.69;;;2.25;100.00
65276;BME280;51875;49.994;14.052;2022-11-03T06:23:42;98852.09;;;2.14;100.00
65276;BME280;51875;49.994;14.052;2022-11-03T06:25:07;98856.59;;;2.30;100.00
65276;BME280;51875;49.994;14.052;2022-11-03T06:26:26;98859.13;;;2.24;100.00
65276;BME280;51875;49.994;14.052;2022-11-03T06:27:42;98855.53;;;2.13;100.00
65276;BME280;51875;49.994;14.052;2022-11-03T06:28:58;98855.56;;;2.16;100.00
65276;BME280;51875;49.994;14.052;2022-11-03T06:30:24;98850.53;;;2.25;100.00
65276;BME280;51875;49.994;14.052;2022-11-03T06:31:40;98854.69;;;2.15;100.00
65276;BME280;51875;49.994;14.052;2022-11-03T06:33:03;98847.97;;;2.30;100.00
65276;BME280;51875;49.994;14.052;2022-11-03T06:35:44;98853.13;;;2.28;100.00
65276;BME280;51875;49.994;14.052;2022-11-03T06:37:09;98855.84;;;2.39;100.00
65276;BME280;51875;49.994;14.052;2022-11-03T06:38:28;98853.34;;;2.45;100.00
65276;BME280;51875;49.994;14.052;2022-11-03T06:39:45;98859.44;;;2.52;100.00
65276;BME280;51875;49.994;14.052;2022-11-03T06:41:01;98853.19;;;2.34;100.00
65276;BME280;51875;49.994;14.052;2022-11-03T06:42:19;98858.44;;;2.40;100.00
65276;BME280;51875;49.994;14.052;2022-11-03T06:43:40;98855.00;;;2.38;100.00
65276;BME280;51875;49.994;14.052;2022-11-03T06:44:56;98853.22;;;2.37;100.00
65276;BME280;51875;49.994;14.052;2022-11-03T06:46:20;98855.91;;;2.44;100.00
65276;BME280;51875;49.994;14.052;2022-11-03T06:47:39;98852.88;;;2.08;100.00
65276;BME280;51875;49.994;14.052;2022-11-03T06:48:57;98857.22;;;2.12;100.00
65276;BME280;51875;49.994;14.052;2022-11-03T06:50:32;98855.75;;;2.31;100.00
65276;BME280;51875;49.994;14.052;2022-11-03T06:51:47;98854.13;;;2.39;100.00
65276;BME280;51875;49.994;14.052;2022-11-03T06:53:03;98851.59;;;2.46;100.00
65276;BME280;51875;49.994;14.052;2022-11-03T06:54:18;98851.56;;;2.41;100.00
65276;BME280;51875;49.994;14.052;2022-11-03T06:55:35;98852.25;;;2.26;100.00
65276;BME280;51875;49.994;14.052;2022-11-03T06:56:52;98845.47;;;2.37;100.00
65276;BME280;51875;49.994;14.052;2022-11-03T06:58:13;98847.28;;;2.45;100.00
65276;BME280;51875;49.994;14.052;2022-11-03T06:59:29;98853.22;;;2.36;100.00
65276;BME280;51875;49.994;14.052;2022-11-03T07:00:45;98841.16;;;2.36;100.00
65276;BME280;51875;49.994;14.052;2022-11-03T07:02:01;98851.53;;;2.38;100.00
65276;BME280;51875;49.994;14.052;2022-11-03T07:04:38;98846.91;;;2.12;100.00
65276;BME280;51875;49.994;14.052;2022-11-03T07:06:01;98842.88;;;2.36;100.00
65276;BME280;51875;49.994;14.052;2022-11-03T07:07:17;98835.72;;;2.13;100.00
65276;BME280;51875;49.994;14.052;2022-11-03T07:08:38;98832.56;;;2.37;100.00
65276;BME280;51875;49.994;14.052;2022-11-03T07:09:55;98832.09;;;2.74;100.00
65276;BME280;51875;49.994;14.052;2022-11-03T07:11:21;98830.34;;;2.72;100.00